createdAt,value
2019-06-15T00:01:40.242Z,9.70
2019-06-15T00:04:08.746Z,9.30
2019-06-15T00:06:37.337Z,11.70
2019-06-15T00:09:06.406Z,11.47
2019-06-15T00:11:35.069Z,10.43
2019-06-15T00:14:03.358Z,7.13
2019-06-15T00:16:31.895Z,9.13
2019-06-15T00:19:00.111Z,11.70
2019-06-15T00:21:28.628Z,9.27
2019-06-15T00:23:57.117Z,11.27
2019-06-15T00:26:25.324Z,7.93
2019-06-15T00:28:53.597Z,9.07
2019-06-15T00:31:21.822Z,7.70
2019-06-15T00:33:50.098Z,10.23
2019-06-15T00:36:18.590Z,13.20
2019-06-15T00:38:46.907Z,8.63
2019-06-15T00:41:15.107Z,8.37
2019-06-15T00:43:43.461Z,9.43
2019-06-15T00:46:11.680Z,9.37
2019-06-15T00:48:39.897Z,8.13
2019-06-15T00:51:08.360Z,10.17
2019-06-15T00:53:36.574Z,10.10
2019-06-15T00:56:04.920Z,9.20
2019-06-15T00:58:33.195Z,12.27
2019-06-15T01:01:01.769Z,10.07
2019-06-15T01:03:30.141Z,11.57
2019-06-15T01:05:58.342Z,9.13
2019-06-15T01:08:26.574Z,11.00
2019-06-15T01:10:54.892Z,6.27
2019-06-15T01:13:23.139Z,7.90
2019-06-15T01:15:51.349Z,9.13
2019-06-15T01:18:19.808Z,6.77
2019-06-15T01:20:48.284Z,7.60
2019-06-15T01:23:16.519Z,8.87
2019-06-15T01:25:44.915Z,7.27
2019-06-15T01:28:13.235Z,8.70
2019-06-15T01:30:41.940Z,10.00
2019-06-15T01:33:10.488Z,8.13
2019-06-15T01:35:38.774Z,10.47
2019-06-15T01:38:06.985Z,6.73
2019-06-15T01:40:35.197Z,7.53
2019-06-15T01:43:03.407Z,9.17
2019-06-15T01:45:31.964Z,8.23
2019-06-15T01:48:00.173Z,9.57
2019-06-15T01:50:28.722Z,8.87
2019-06-15T01:52:56.945Z,10.20
2019-06-15T01:55:25.144Z,6.73
2019-06-15T01:57:53.363Z,10.00
2019-06-15T02:00:27.538Z,5.53
2019-06-15T02:02:56.036Z,6.80
2019-06-15T02:05:24.243Z,7.40
2019-06-15T02:07:52.454Z,6.93
2019-06-15T02:10:28.414Z,7.90
2019-06-15T02:12:58.060Z,10.60
2019-06-15T02:15:26.276Z,7.67
2019-06-15T02:17:54.477Z,5.90
2019-06-15T02:20:22.701Z,5.73
2019-06-15T02:22:50.923Z,7.70
2019-06-15T02:25:35.476Z,7.90
2019-06-15T02:27:54.258Z,9.17
2019-06-15T02:30:26.640Z,4.83
2019-06-15T02:32:56.766Z,9.27
2019-06-15T02:35:24.994Z,7.17
2019-06-15T02:37:53.541Z,6.47
2019-06-15T02:40:22.105Z,6.90
2019-06-15T02:42:50.576Z,5.47
2019-06-15T02:45:18.845Z,7.10
2019-06-15T02:47:47.054Z,7.70
2019-06-15T02:50:15.611Z,8.63
2019-06-15T02:52:43.844Z,10.33
2019-06-15T02:55:12.079Z,7.73
2019-06-15T02:57:40.361Z,8.60
2019-06-15T03:00:08.637Z,9.47
2019-06-15T03:02:37.210Z,9.37
2019-06-15T03:05:06.566Z,5.83
2019-06-15T03:07:35.096Z,9.80
2019-06-15T03:10:06.542Z,7.03
2019-06-15T03:12:34.757Z,9.80
2019-06-15T03:15:03.360Z,6.07
2019-06-15T03:17:31.806Z,7.07
2019-06-15T03:20:00.030Z,9.73
2019-06-15T03:22:28.244Z,10.23
2019-06-15T03:24:56.518Z,6.63
2019-06-15T03:27:24.734Z,6.57
2019-06-15T03:29:52.970Z,8.43
2019-06-15T03:32:21.356Z,5.37
2019-06-15T03:34:49.563Z,8.57
2019-06-15T03:37:17.786Z,8.27
2019-06-15T03:39:45.984Z,9.10
2019-06-15T03:42:14.206Z,7.47
2019-06-15T03:44:42.434Z,6.13
2019-06-15T03:47:10.634Z,7.10
2019-06-15T03:49:38.878Z,7.50
2019-06-15T03:52:07.102Z,9.50
2019-06-15T03:54:35.291Z,5.80
2019-06-15T03:57:03.563Z,7.13
2019-06-15T03:59:32.063Z,7.07
2019-06-15T04:02:00.281Z,9.43
2019-06-15T04:04:28.489Z,5.80
2019-06-15T04:06:56.711Z,7.03
2019-06-15T04:09:24.910Z,9.53
2019-06-15T04:11:53.177Z,10.60
2019-06-15T04:14:21.396Z,7.90
2019-06-15T04:16:49.730Z,8.07
2019-06-15T04:19:18.006Z,5.27
2019-06-15T04:21:46.536Z,8.13
2019-06-15T04:24:14.763Z,9.30
2019-06-15T04:26:43.073Z,4.77
2019-06-15T04:29:11.248Z,5.57
2019-06-15T04:31:40.139Z,3.73
2019-06-15T04:34:08.488Z,6.13
2019-06-15T04:36:36.813Z,5.67
2019-06-15T04:39:06.596Z,5.53
2019-06-15T04:41:34.831Z,5.97
2019-06-15T04:44:03.057Z,7.03
2019-06-15T04:46:32.115Z,7.47
2019-06-15T04:49:00.452Z,6.73
2019-06-15T04:51:28.654Z,5.53
2019-06-15T04:53:56.880Z,8.13
2019-06-15T04:56:25.361Z,9.73
2019-06-15T04:58:53.586Z,5.80
2019-06-15T05:01:21.781Z,10.30
2019-06-15T05:03:50.406Z,5.57
2019-06-15T05:06:18.622Z,6.37
2019-06-15T05:08:46.843Z,6.30
2019-06-15T05:11:15.047Z,5.70
2019-06-15T05:13:43.254Z,5.40
2019-06-15T05:16:11.457Z,5.67
2019-06-15T05:18:39.678Z,6.70
2019-06-15T05:21:07.877Z,6.33
2019-06-15T05:23:36.430Z,7.00
2019-06-15T05:26:04.907Z,7.50
2019-06-15T05:28:36.095Z,6.97
2019-06-15T05:31:04.850Z,5.33
2019-06-15T05:33:33.060Z,4.27
2019-06-15T05:36:01.268Z,4.87
2019-06-15T05:38:29.883Z,4.57
2019-06-15T05:40:58.150Z,4.40
2019-06-15T05:43:26.385Z,5.80
2019-06-15T05:45:54.602Z,5.10
2019-06-15T05:48:22.807Z,9.00
2019-06-15T05:50:51.049Z,5.83
2019-06-15T05:53:19.246Z,8.20
2019-06-15T05:55:47.680Z,4.73
2019-06-15T05:58:15.903Z,5.83
2019-06-15T06:00:44.087Z,6.23
2019-06-15T06:03:12.300Z,6.07
2019-06-15T06:05:40.512Z,6.23
2019-06-15T06:08:08.709Z,5.73
2019-06-15T06:10:37.243Z,7.00
2019-06-15T06:13:05.434Z,6.37
2019-06-15T06:15:33.938Z,7.10
2019-06-15T06:18:02.140Z,4.53
2019-06-15T06:20:30.643Z,7.50
2019-06-15T06:22:58.844Z,5.67
2019-06-15T06:25:27.086Z,5.60
2019-06-15T06:27:55.291Z,8.90
2019-06-15T06:30:23.613Z,5.60
2019-06-15T06:32:51.828Z,4.23
2019-06-15T06:35:20.046Z,7.30
2019-06-15T06:37:48.293Z,5.47
2019-06-15T06:40:16.547Z,5.00
2019-06-15T06:42:45.041Z,4.13
2019-06-15T06:45:13.252Z,7.00
2019-06-15T06:47:41.452Z,3.97
2019-06-15T06:50:09.681Z,5.40
2019-06-15T06:52:37.869Z,4.30
2019-06-15T06:55:06.433Z,4.17
2019-06-15T06:57:34.836Z,5.67
2019-06-15T07:00:03.430Z,5.40
2019-06-15T07:02:31.675Z,5.90
2019-06-15T07:05:00.130Z,7.23
2019-06-15T07:07:28.625Z,3.57
2019-06-15T07:09:56.831Z,6.33
2019-06-15T07:12:25.035Z,7.10
2019-06-15T07:14:53.544Z,4.23
2019-06-15T07:17:22.032Z,4.57
2019-06-15T07:19:50.335Z,4.57
2019-06-15T07:22:18.776Z,6.73
2019-06-15T07:24:47.269Z,3.27
2019-06-15T07:27:15.472Z,4.33
2019-06-15T07:29:43.711Z,2.50
2019-06-15T07:32:11.914Z,3.80
2019-06-15T07:34:40.878Z,5.37
2019-06-15T07:37:09.077Z,3.60
2019-06-15T07:39:37.307Z,2.83
2019-06-15T07:42:05.562Z,3.97
2019-06-15T07:44:33.800Z,4.03
2019-06-15T07:47:02.027Z,4.57
2019-06-15T07:49:30.234Z,2.33
2019-06-15T07:51:58.712Z,3.13
2019-06-15T07:54:27.186Z,1.93
2019-06-15T07:56:55.388Z,2.00
2019-06-15T07:59:23.941Z,3.53
2019-06-15T08:01:52.252Z,5.93
2019-06-15T08:04:20.495Z,3.93
2019-06-15T08:06:48.769Z,4.07
2019-06-15T08:09:17.026Z,4.30
2019-06-15T08:11:45.981Z,1.43
2019-06-15T08:14:14.236Z,3.23
2019-06-15T08:16:42.472Z,1.73
2019-06-15T08:19:10.659Z,1.87
2019-06-15T08:21:38.873Z,1.47
2019-06-15T08:24:07.067Z,2.60
2019-06-15T08:26:35.609Z,4.93
2019-06-15T08:29:03.826Z,3.20
2019-06-15T08:31:32.047Z,2.23
2019-06-15T08:34:00.255Z,4.97
2019-06-15T08:36:28.475Z,2.67
2019-06-15T08:38:56.686Z,2.10
2019-06-15T08:41:24.918Z,3.07
2019-06-15T08:43:53.136Z,4.27
2019-06-15T08:46:21.333Z,2.97
2019-06-15T08:48:49.774Z,3.23
2019-06-15T08:51:18.258Z,3.47
2019-06-15T08:53:46.700Z,3.07
2019-06-15T08:56:14.954Z,2.17
2019-06-15T08:58:54.784Z,3.60
2019-06-15T09:01:13.071Z,2.90
2019-06-15T09:03:41.415Z,1.87
2019-06-15T09:06:09.623Z,2.87
2019-06-15T09:08:37.834Z,1.77
2019-06-15T09:11:06.042Z,3.80
2019-06-15T09:13:34.252Z,7.77
2019-06-15T09:16:02.466Z,6.13
2019-06-15T09:18:30.928Z,2.43
2019-06-15T09:20:59.175Z,2.07
2019-06-15T09:23:27.388Z,1.73
2019-06-15T09:25:55.586Z,2.23
2019-06-15T09:28:23.814Z,2.50
2019-06-15T09:30:52.152Z,3.00
2019-06-15T09:33:20.366Z,2.17
2019-06-15T09:35:48.565Z,2.10
2019-06-15T09:38:17.040Z,3.17
2019-06-15T09:40:45.295Z,23.73
2019-06-15T09:43:13.518Z,4.67
2019-06-15T09:45:42.088Z,1.50
2019-06-15T09:48:10.556Z,1.27
2019-06-15T09:50:38.847Z,2.00
2019-06-15T09:53:07.411Z,1.60
2019-06-15T09:55:35.718Z,1.33
2019-06-15T09:58:03.941Z,1.73
2019-06-15T10:00:32.140Z,1.93
2019-06-15T10:03:00.355Z,3.90
2019-06-15T10:05:28.567Z,3.30
2019-06-15T10:07:56.776Z,1.93
2019-06-15T10:10:24.988Z,1.87
2019-06-15T10:12:53.521Z,1.53
2019-06-15T10:15:21.730Z,3.13
2019-06-15T10:17:50.033Z,5.23
2019-06-15T10:20:18.232Z,2.57
2019-06-15T10:22:46.550Z,2.67
2019-06-15T10:25:14.755Z,2.60
2019-06-15T10:27:42.974Z,5.27
2019-06-15T10:30:11.382Z,1.40
2019-06-15T10:32:39.599Z,2.20
2019-06-15T10:35:07.826Z,2.20
2019-06-15T10:37:36.053Z,2.33
2019-06-15T10:40:07.673Z,5.53
2019-06-15T10:42:35.893Z,2.63
2019-06-15T10:45:05.908Z,3.00
2019-06-15T10:47:34.642Z,2.33
2019-06-15T10:50:04.298Z,1.93
2019-06-15T10:52:32.509Z,2.47
2019-06-15T10:55:00.964Z,1.50
2019-06-15T10:57:29.609Z,1.50
2019-06-15T10:59:57.996Z,3.20
2019-06-15T11:02:45.787Z,2.00
2019-06-15T11:05:16.030Z,1.70
2019-06-15T11:07:44.582Z,3.27
2019-06-15T11:10:14.052Z,2.43
2019-06-15T11:12:46.641Z,1.53
2019-06-15T11:15:12.436Z,4.30
2019-06-15T11:17:40.634Z,4.10
2019-06-15T11:20:09.127Z,4.43
2019-06-15T11:22:37.344Z,2.50
2019-06-15T11:25:06.256Z,3.67
2019-06-15T11:27:34.776Z,2.57
2019-06-15T11:30:12.924Z,2.30
2019-06-15T11:32:34.232Z,9.73
2019-06-15T11:35:02.625Z,4.13
2019-06-15T11:37:30.831Z,2.27
2019-06-15T11:39:59.149Z,1.67
2019-06-15T11:42:27.366Z,1.80
2019-06-15T11:44:55.579Z,1.80
2019-06-15T11:47:23.784Z,1.97
2019-06-15T11:49:52.324Z,1.57
2019-06-15T11:52:20.531Z,1.87
2019-06-15T11:54:48.989Z,2.23
2019-06-15T11:57:17.223Z,1.90
2019-06-15T11:59:45.437Z,1.70
2019-06-15T12:02:13.739Z,2.03
2019-06-15T12:04:41.986Z,2.67
2019-06-15T12:07:10.243Z,2.67
2019-06-15T12:09:38.743Z,1.50
2019-06-15T12:12:07.358Z,1.50
2019-06-15T12:14:35.559Z,1.70
2019-06-15T12:17:03.797Z,3.53
2019-06-15T12:19:32.083Z,2.00
2019-06-15T12:22:00.306Z,1.63
2019-06-15T12:24:28.732Z,2.53
2019-06-15T12:26:57.012Z,1.77
2019-06-15T12:29:25.575Z,1.57
2019-06-15T12:31:54.021Z,2.13
2019-06-15T12:34:22.230Z,3.10
2019-06-15T12:36:50.433Z,2.67
2019-06-15T12:39:18.646Z,1.93
2019-06-15T12:41:46.862Z,2.97
2019-06-15T12:44:15.065Z,2.30
2019-06-15T12:46:43.289Z,2.07
2019-06-15T12:49:11.567Z,2.10
2019-06-15T12:51:40.915Z,2.40
2019-06-15T12:54:09.238Z,2.40
2019-06-15T12:56:37.464Z,1.70
2019-06-15T12:59:05.652Z,2.73
2019-06-15T13:01:33.911Z,1.90
2019-06-15T13:04:02.125Z,1.50
2019-06-15T13:06:30.639Z,2.30
2019-06-15T13:08:58.864Z,4.30
2019-06-15T13:11:27.109Z,1.40
2019-06-15T13:13:55.329Z,2.23
2019-06-15T13:16:38.307Z,2.43
2019-06-15T13:18:53.493Z,1.40
2019-06-15T13:21:21.723Z,1.37
2019-06-15T13:23:49.936Z,3.07
2019-06-15T13:26:18.500Z,1.13
2019-06-15T13:28:46.767Z,2.03
2019-06-15T13:31:18.363Z,1.83
2019-06-15T13:33:44.928Z,2.43
2019-06-15T13:36:13.383Z,1.50
2019-06-15T13:38:41.628Z,2.13
2019-06-15T13:41:09.843Z,1.33
2019-06-15T13:43:38.052Z,3.20
2019-06-15T13:46:06.632Z,2.83
2019-06-15T13:48:35.086Z,2.07
2019-06-15T13:51:03.311Z,1.50
2019-06-15T13:53:31.766Z,5.80
2019-06-15T13:55:59.976Z,1.90
2019-06-15T13:58:28.422Z,4.10
2019-06-15T14:00:56.639Z,2.40
2019-06-15T14:03:25.180Z,3.10
2019-06-15T14:05:53.378Z,1.83
2019-06-15T14:08:21.848Z,2.30
2019-06-15T14:10:50.314Z,1.60
2019-06-15T14:13:18.524Z,3.20
2019-06-15T14:15:46.722Z,1.40
2019-06-15T14:18:14.933Z,2.03
2019-06-15T14:20:43.137Z,1.87
2019-06-15T14:23:11.714Z,2.00
2019-06-15T14:25:39.934Z,1.53
2019-06-15T14:28:08.151Z,2.75
2019-06-15T14:30:37.100Z,1.50
2019-06-15T14:33:05.633Z,2.53
2019-06-15T14:35:33.830Z,5.60
2019-06-15T14:38:02.044Z,2.62
2019-06-15T14:40:30.258Z,1.65
2019-06-15T14:42:58.470Z,1.70
2019-06-15T14:45:26.812Z,1.70
2019-06-15T14:47:55.031Z,1.80
2019-06-15T14:50:23.241Z,1.70
2019-06-15T14:52:51.536Z,2.30
2019-06-15T14:55:19.784Z,1.92
2019-06-15T14:57:48.005Z,2.02
2019-06-15T15:00:16.831Z,1.42
2019-06-15T15:02:46.886Z,2.08
2019-06-15T15:05:17.903Z,1.50
2019-06-15T15:07:46.933Z,1.43
2019-06-15T15:10:16.310Z,2.17
2019-06-15T15:12:46.032Z,1.60
2019-06-15T15:15:16.897Z,2.05
2019-06-15T15:17:46.025Z,2.10
2019-06-15T15:20:17.357Z,1.92
2019-06-15T15:22:46.517Z,2.45
2019-06-15T15:25:16.894Z,1.80
2019-06-15T15:27:46.745Z,2.80
2019-06-15T15:30:18.260Z,2.00
2019-06-15T15:32:46.794Z,1.70
2019-06-15T15:35:16.092Z,2.72
2019-06-15T15:37:46.355Z,2.42
2019-06-15T15:40:16.497Z,4.12
2019-06-15T15:42:44.230Z,1.70
2019-06-15T15:45:12.674Z,1.60
2019-06-15T15:47:40.877Z,1.62
2019-06-15T15:50:09.142Z,1.62
2019-06-15T15:52:37.710Z,3.10
2019-06-15T15:55:08.839Z,1.50
2019-06-15T15:57:37.059Z,1.72
2019-06-15T16:00:07.346Z,1.70
2019-06-15T16:02:47.486Z,1.80
2019-06-15T16:05:06.315Z,2.02
2019-06-15T16:07:36.460Z,2.08
2019-06-15T16:10:06.237Z,1.62
2019-06-15T16:12:36.206Z,2.35
2019-06-15T16:15:07.340Z,1.95
2019-06-15T16:17:37.205Z,1.72
2019-06-15T16:20:09.139Z,2.42
2019-06-15T16:22:37.415Z,2.08
2019-06-15T16:25:06.864Z,2.20
2019-06-15T16:27:37.112Z,1.60
2019-06-15T16:30:08.549Z,2.95
2019-06-15T16:32:37.247Z,4.80
2019-06-15T16:35:06.579Z,2.77
2019-06-15T16:37:34.924Z,2.62
2019-06-15T16:40:05.233Z,1.80
2019-06-15T16:42:36.329Z,2.40
2019-06-15T16:45:06.838Z,1.70
2019-06-15T16:47:36.356Z,3.70
2019-06-15T16:50:07.756Z,2.52
2019-06-15T16:52:36.532Z,2.80
2019-06-15T16:55:10.026Z,2.87
2019-06-15T16:57:37.121Z,3.52
2019-06-15T17:00:07.849Z,2.95
2019-06-15T17:02:36.869Z,3.90
2019-06-15T17:05:08.449Z,5.35
2019-06-15T17:07:37.036Z,3.27
2019-06-15T17:10:08.725Z,2.83
2019-06-15T17:12:37.317Z,3.17
2019-06-15T17:15:06.712Z,5.00
2019-06-15T17:17:36.825Z,2.25
2019-06-15T17:20:08.434Z,2.20
2019-06-15T17:22:37.800Z,2.60
2019-06-15T17:25:09.265Z,2.97
2019-06-15T17:27:37.697Z,3.40
2019-06-15T17:30:07.168Z,4.00
2019-06-15T17:32:36.918Z,4.53
2019-06-15T17:35:06.791Z,3.83
2019-06-15T17:37:36.414Z,3.77
2019-06-15T17:40:07.349Z,2.53
2019-06-15T17:42:36.926Z,4.37
2019-06-15T17:45:06.641Z,2.77
2019-06-15T17:47:35.350Z,3.20
2019-06-15T17:50:07.291Z,3.73
2019-06-15T17:52:36.002Z,4.53
2019-06-15T17:55:07.116Z,4.60
2019-06-15T17:57:36.033Z,2.93
2019-06-15T18:00:08.997Z,2.50
2019-06-15T18:02:38.350Z,2.67
2019-06-15T18:05:07.010Z,2.40
2019-06-15T18:07:36.019Z,2.67
2019-06-15T18:10:07.930Z,5.07
2019-06-15T18:12:36.209Z,2.77
2019-06-15T18:15:07.638Z,3.80
2019-06-15T18:17:36.989Z,3.03
2019-06-15T18:20:06.900Z,2.77
2019-06-15T18:22:36.223Z,3.27
2019-06-15T18:25:06.510Z,4.97
2019-06-15T18:27:37.354Z,4.87
2019-06-15T18:30:06.811Z,3.77
2019-06-15T18:32:37.791Z,2.90
2019-06-15T18:35:06.443Z,4.50
2019-06-15T18:37:37.154Z,4.30
2019-06-15T18:40:07.486Z,4.70
2019-06-15T18:42:36.999Z,2.87
2019-06-15T18:45:08.438Z,3.97
2019-06-15T18:47:36.933Z,4.63
2019-06-15T18:50:10.582Z,4.63
2019-06-15T18:52:38.849Z,4.27
2019-06-15T18:55:07.662Z,3.37
2019-06-15T18:57:37.219Z,2.93
2019-06-15T19:00:07.179Z,3.43
2019-06-15T19:02:36.288Z,3.30
2019-06-15T19:05:06.773Z,3.13
2019-06-15T19:07:37.427Z,3.03
2019-06-15T19:10:07.909Z,4.17
2019-06-15T19:12:36.158Z,6.30
2019-06-15T19:15:07.218Z,3.00
2019-06-15T19:17:37.096Z,5.03
2019-06-15T19:20:06.330Z,3.53
2019-06-15T19:22:35.017Z,4.13
2019-06-15T19:25:03.606Z,5.73
2019-06-15T19:27:31.898Z,5.17
2019-06-15T19:30:00.281Z,3.57
2019-06-15T19:32:28.687Z,4.70
2019-06-15T19:34:57.084Z,5.97
2019-06-15T19:37:26.067Z,3.23
2019-06-15T19:39:56.528Z,3.33
2019-06-15T19:42:25.990Z,3.13
2019-06-15T19:44:56.215Z,5.57
2019-06-15T19:47:26.546Z,6.00
2019-06-15T19:49:56.844Z,6.90
2019-06-15T19:52:25.225Z,6.80
2019-06-15T19:54:53.421Z,7.07
2019-06-15T19:57:21.948Z,5.00
2019-06-15T19:59:50.244Z,5.13
2019-06-15T20:02:18.453Z,4.07
2019-06-15T20:04:59.166Z,4.07
2019-06-15T20:07:17.066Z,3.93
2019-06-15T20:09:46.241Z,5.07
2019-06-15T20:12:19.116Z,4.00
2019-06-15T20:14:46.344Z,3.23
2019-06-15T20:17:17.353Z,5.47
2019-06-15T20:19:46.494Z,4.07
2019-06-15T20:22:17.123Z,4.47
2019-06-15T20:24:47.283Z,5.40
2019-06-15T20:27:16.391Z,4.73
2019-06-15T20:29:47.525Z,3.30
2019-06-15T20:32:17.336Z,3.67
2019-06-15T20:34:46.236Z,6.57
2019-06-15T20:37:16.704Z,6.03
2019-06-15T20:39:46.772Z,6.17
2019-06-15T20:42:16.482Z,3.77
2019-06-15T20:44:46.193Z,5.07
2019-06-15T20:47:14.687Z,7.33
2019-06-15T20:49:42.990Z,4.37
2019-06-15T20:52:12.567Z,4.83
2019-06-15T20:54:40.872Z,3.10
2019-06-15T20:57:09.129Z,4.93
2019-06-15T20:59:37.411Z,5.37
2019-06-15T21:02:06.745Z,4.87
2019-06-15T21:04:36.370Z,5.03
2019-06-15T21:07:06.661Z,6.87
2019-06-15T21:09:36.427Z,3.77
2019-06-15T21:12:06.589Z,4.70
2019-06-15T21:14:36.627Z,6.03
2019-06-15T21:17:06.787Z,5.17
2019-06-15T21:19:36.102Z,4.80
2019-06-15T21:22:06.290Z,4.43
2019-06-15T21:24:37.048Z,4.10
2019-06-15T21:27:06.279Z,4.47
2019-06-15T21:29:36.778Z,6.33
2019-06-15T21:32:04.348Z,4.17
2019-06-15T21:34:32.611Z,3.37
2019-06-15T21:37:01.129Z,4.50
2019-06-15T21:39:29.340Z,3.77
2019-06-15T21:41:57.603Z,6.77
2019-06-15T21:44:26.527Z,8.50
2019-06-15T21:46:56.294Z,4.60
2019-06-15T21:49:26.371Z,5.90
2019-06-15T21:51:56.434Z,5.00
2019-06-15T21:54:26.715Z,6.37
2019-06-15T21:56:56.445Z,6.17
2019-06-15T21:59:26.109Z,5.10
2019-06-15T22:01:54.606Z,4.00
2019-06-15T22:04:22.814Z,5.03
2019-06-15T22:06:51.086Z,3.97
2019-06-15T22:09:21.102Z,4.77
2019-06-15T22:11:49.665Z,4.97
2019-06-15T22:14:17.933Z,4.17
2019-06-15T22:16:46.457Z,5.77
2019-06-15T22:19:16.895Z,6.27
2019-06-15T22:21:47.528Z,6.53
2019-06-15T22:24:16.281Z,4.67
2019-06-15T22:26:46.780Z,4.67
2019-06-15T22:29:16.846Z,6.03
2019-06-15T22:31:46.697Z,3.03
2019-06-15T22:34:16.275Z,5.33
2019-06-15T22:36:44.758Z,4.47
2019-06-15T22:39:13.322Z,3.70
2019-06-15T22:41:41.587Z,3.57
2019-06-15T22:44:09.969Z,4.33
2019-06-15T22:46:38.326Z,4.33
2019-06-15T22:49:06.968Z,3.47
2019-06-15T22:51:36.764Z,4.07
2019-06-15T22:54:05.308Z,4.47
2019-06-15T22:56:33.575Z,3.83
2019-06-15T22:59:01.828Z,3.20
2019-06-15T23:01:30.269Z,4.10
2019-06-15T23:03:58.460Z,5.67
2019-06-15T23:06:37.491Z,3.90
2019-06-15T23:08:56.836Z,2.80
2019-06-15T23:11:26.589Z,3.70
2019-06-15T23:13:57.209Z,3.80
2019-06-15T23:16:27.207Z,5.07
2019-06-15T23:18:57.001Z,2.80
2019-06-15T23:21:26.825Z,4.13
2019-06-15T23:23:56.221Z,4.60
2019-06-15T23:26:25.085Z,4.73
2019-06-15T23:28:53.457Z,3.63
2019-06-15T23:31:21.802Z,3.63
2019-06-15T23:33:50.374Z,4.67
2019-06-15T23:36:23.577Z,2.77
2019-06-15T23:38:51.868Z,3.70
2019-06-15T23:41:20.377Z,2.57
2019-06-15T23:43:48.581Z,3.23
2019-06-15T23:46:17.476Z,2.63
2019-06-15T23:48:47.004Z,5.23
2019-06-15T23:51:16.948Z,4.20
2019-06-15T23:53:46.219Z,3.87
2019-06-15T23:56:14.656Z,3.10
2019-06-15T23:58:42.924Z,3.50
